sensor_id;sensor_type;location;lat;lon;timestamp;pressure;altitude;pressure_sealevel;temperature;humidity
66385;BME280;53426;55.872;37.462;2023-02-23T00:01:40;99135.56;;;-13.10;64.31
66385;BME280;53426;55.872;37.462;2023-02-23T00:04:07;99138.97;;;-13.07;64.98
66385;BME280;53426;55.872;37.462;2023-02-23T00:06:37;99150.03;;;-13.16;63.84
66385;BME280;53426;55.872;37.462;2023-02-23T00:11:59;99119.38;;;-13.37;64.61
66385;BME280;53426;55.872;37.462;2023-02-23T00:14:35;99145.75;;;-13.21;64.23
66385;BME280;53426;55.872;37.462;2023-02-23T00:17:41;99151.72;;;-13.14;64.34
66385;BME280;53426;55.872;37.462;2023-02-23T00:20:10;99121.06;;;-13.42;65.23
66385;BME280;53426;55.872;37.462;2023-02-23T00:22:40;99146.53;;;-13.30;64.85
66385;BME280;53426;55.872;37.462;2023-02-23T00:25:10;99157.63;;;-13.19;64.36
66385;BME280;53426;55.872;37.462;2023-02-23T00:27:39;99132.06;;;-13.43;64.34
66385;BME280;53426;55.872;37.462;2023-02-23T00:30:11;99126.13;;;-13.43;64.72
66385;BME280;53426;55.872;37.462;2023-02-23T00:32:38;99164.44;;;-13.21;64.28
66385;BME280;53426;55.872;37.462;2023-02-23T00:35:05;99170.38;;;-13.20;64.88
66385;BME280;53426;55.872;37.462;2023-02-23T00:37:36;99174.59;;;-13.19;64.63
66385;BME280;53426;55.872;37.462;2023-02-23T00:40:03;99138.84;;;-13.40;64.46
66385;BME280;53426;55.872;37.462;2023-02-23T00:42:37;99158.44;;;-13.33;64.98
66385;BME280;53426;55.872;37.462;2023-02-23T00:45:03;99132.00;;;-13.52;65.00
66385;BME280;53426;55.872;37.462;2023-02-23T00:47:35;99161.75;;;-13.45;65.52
66385;BME280;53426;55.872;37.462;2023-02-23T00:50:01;99162.63;;;-13.40;65.42
66385;BME280;53426;55.872;37.462;2023-02-23T00:52:29;99145.63;;;-13.45;65.22
66385;BME280;53426;55.872;37.462;2023-02-23T00:54:55;99141.34;;;-13.55;64.95
66385;BME280;53426;55.872;37.462;2023-02-23T00:57:21;99143.84;;;-13.62;65.89
66385;BME280;53426;55.872;37.462;2023-02-23T00:59:48;99186.41;;;-13.35;64.88
66385;BME280;53426;55.872;37.462;2023-02-23T01:05:33;99143.81;;;-13.66;65.70
66385;BME280;53426;55.872;37.462;2023-02-23T01:07:59;99161.69;;;-13.57;64.76
66385;BME280;53426;55.872;37.462;2023-02-23T01:10:25;99176.19;;;-13.48;65.38
66385;BME280;53426;55.872;37.462;2023-02-23T01:12:51;99148.88;;;-13.75;65.33
66385;BME280;53426;55.872;37.462;2023-02-23T01:15:18;99189.72;;;-13.54;65.14
66385;BME280;53426;55.872;37.462;2023-02-23T01:17:45;99194.78;;;-13.55;65.55
66385;BME280;53426;55.872;37.462;2023-02-23T01:20:26;99179.47;;;-13.63;65.48
66385;BME280;53426;55.872;37.462;2023-02-23T01:22:53;99198.19;;;-13.55;66.12
66385;BME280;53426;55.872;37.462;2023-02-23T01:28:29;99150.50;;;-13.86;65.94
66385;BME280;53426;55.872;37.462;2023-02-23T01:30:55;99194.78;;;-13.57;65.42
66385;BME280;53426;55.872;37.462;2023-02-23T01:33:21;99179.44;;;-13.66;65.51
66385;BME280;53426;55.872;37.462;2023-02-23T01:35:59;99191.34;;;-13.65;66.10
66385;BME280;53426;55.872;37.462;2023-02-23T01:38:25;99186.25;;;-13.62;65.75
66385;BME280;53426;55.872;37.462;2023-02-23T01:40:52;99187.97;;;-13.61;66.39
66385;BME280;53426;55.872;37.462;2023-02-23T01:49:34;99176.06;;;-13.70;66.26
66385;BME280;53426;55.872;37.462;2023-02-23T01:52:07;99182.84;;;-13.70;65.67
66385;BME280;53426;55.872;37.462;2023-02-23T01:54:52;99192.09;;;-13.77;65.57
66385;BME280;53426;55.872;37.462;2023-02-23T02:00:31;99171.63;;;-13.93;66.46
66385;BME280;53426;55.872;37.462;2023-02-23T02:03:03;99180.19;;;-13.84;65.91
66385;BME280;53426;55.872;37.462;2023-02-23T02:05:35;99209.13;;;-13.70;65.88
66385;BME280;53426;55.872;37.462;2023-02-23T02:08:02;99211.66;;;-13.68;66.28
66385;BME280;53426;55.872;37.462;2023-02-23T02:10:30;99215.09;;;-13.65;66.50
66385;BME280;53426;55.872;37.462;2023-02-23T02:13:09;99198.06;;;-13.75;65.96
66385;BME280;53426;55.872;37.462;2023-02-23T02:17:18;99221.06;;;-13.61;66.21
66385;BME280;53426;55.872;37.462;2023-02-23T02:22:35;99219.31;;;-13.67;65.64
66385;BME280;53426;55.872;37.462;2023-02-23T02:28:26;99227.84;;;-13.62;66.46
66385;BME280;53426;55.872;37.462;2023-02-23T02:37:19;99230.34;;;-13.66;65.39
66385;BME280;53426;55.872;37.462;2023-02-23T02:40:21;99242.22;;;-13.68;65.93
66385;BME280;53426;55.872;37.462;2023-02-23T02:48:12;99254.94;;;-13.71;65.78
66385;BME280;53426;55.872;37.462;2023-02-23T02:50:53;99251.53;;;-13.69;67.08
66385;BME280;53426;55.872;37.462;2023-02-23T02:56:15;99254.88;;;-13.80;66.55
66385;BME280;53426;55.872;37.462;2023-02-23T02:58:46;99250.59;;;-13.80;66.77
66385;BME280;53426;55.872;37.462;2023-02-23T03:01:17;99254.91;;;-13.76;66.63
66385;BME280;53426;55.872;37.462;2023-02-23T03:04:18;99242.97;;;-13.80;65.92
66385;BME280;53426;55.872;37.462;2023-02-23T03:07:30;99240.38;;;-13.84;65.98
66385;BME280;53426;55.872;37.462;2023-02-23T03:10:34;99226.72;;;-13.98;66.38
66385;BME280;53426;55.872;37.462;2023-02-23T03:19:25;99244.59;;;-13.89;66.48
66385;BME280;53426;55.872;37.462;2023-02-23T03:22:23;99259.06;;;-13.82;66.92
66385;BME280;53426;55.872;37.462;2023-02-23T03:25:14;99267.59;;;-13.74;66.82
66385;BME280;53426;55.872;37.462;2023-02-23T03:28:24;99269.31;;;-13.73;66.67
66385;BME280;53426;55.872;37.462;2023-02-23T03:34:50;99265.84;;;-13.84;66.92
66385;BME280;53426;55.872;37.462;2023-02-23T03:37:40;99263.22;;;-13.93;66.68
66385;BME280;53426;55.872;37.462;2023-02-23T03:40:28;99258.94;;;-13.96;66.90
66385;BME280;53426;55.872;37.462;2023-02-23T03:43:23;99267.41;;;-13.98;67.19
66385;BME280;53426;55.872;37.462;2023-02-23T03:46:11;99260.69;;;-13.93;66.60
66385;BME280;53426;55.872;37.462;2023-02-23T03:49:03;99270.06;;;-13.88;66.87
66385;BME280;53426;55.872;37.462;2023-02-23T03:51:57;99236.75;;;-14.12;66.77
66385;BME280;53426;55.872;37.462;2023-02-23T03:55:16;99274.16;;;-14.04;67.21
66385;BME280;53426;55.872;37.462;2023-02-23T03:58:10;99284.41;;;-13.94;66.85
66385;BME280;53426;55.872;37.462;2023-02-23T04:00:57;99285.19;;;-14.00;66.40
66385;BME280;53426;55.872;37.462;2023-02-23T04:03:45;99282.69;;;-13.98;67.16
66385;BME280;53426;55.872;37.462;2023-02-23T04:06:37;99253.72;;;-14.11;66.44
66385;BME280;53426;55.872;37.462;2023-02-23T04:09:22;99250.22;;;-14.22;66.67
66385;BME280;53426;55.872;37.462;2023-02-23T04:12:20;99290.25;;;-14.02;66.28
66385;BME280;53426;55.872;37.462;2023-02-23T04:17:32;99292.78;;;-14.05;67.12
66385;BME280;53426;55.872;37.462;2023-02-23T04:20:03;99276.63;;;-14.10;66.94
66385;BME280;53426;55.872;37.462;2023-02-23T04:22:35;99289.44;;;-14.02;66.32
66385;BME280;53426;55.872;37.462;2023-02-23T04:25:01;99286.81;;;-14.07;66.64
66385;BME280;53426;55.872;37.462;2023-02-23T04:27:29;99286.03;;;-14.01;66.12
66385;BME280;53426;55.872;37.462;2023-02-23T04:30:00;99257.03;;;-14.21;67.16
66385;BME280;53426;55.872;37.462;2023-02-23T04:32:29;99269.00;;;-14.10;66.62
66385;BME280;53426;55.872;37.462;2023-02-23T04:34:55;99291.22;;;-13.93;67.18
66385;BME280;53426;55.872;37.462;2023-02-23T04:37:21;99299.66;;;-13.97;66.22
66385;BME280;53426;55.872;37.462;2023-02-23T04:39:47;99284.19;;;-14.19;66.45
66385;BME280;53426;55.872;37.462;2023-02-23T04:42:16;99301.28;;;-14.04;66.89
66385;BME280;53426;55.872;37.462;2023-02-23T04:44:42;99302.91;;;-14.11;66.30
66385;BME280;53426;55.872;37.462;2023-02-23T04:47:08;99306.34;;;-14.06;66.44
66385;BME280;53426;55.872;37.462;2023-02-23T04:49:36;99308.88;;;-14.09;66.68
66385;BME280;53426;55.872;37.462;2023-02-23T04:52:02;99296.13;;;-14.10;66.95
66385;BME280;53426;55.872;37.462;2023-02-23T04:54:54;99305.69;;;-13.88;66.94
66385;BME280;53426;55.872;37.462;2023-02-23T04:57:19;99304.88;;;-13.82;66.32
66385;BME280;53426;55.872;37.462;2023-02-23T04:59:45;99323.59;;;-13.74;66.87
66385;BME280;53426;55.872;37.462;2023-02-23T05:02:11;99313.63;;;-13.53;66.35
66385;BME280;53426;55.872;37.462;2023-02-23T05:04:37;99281.53;;;-13.30;66.04
66385;BME280;53426;55.872;37.462;2023-02-23T05:07:03;99296.19;;;-12.89;65.95
66385;BME280;53426;55.872;37.462;2023-02-23T05:09:32;99312.59;;;-12.23;65.04
66385;BME280;53426;55.872;37.462;2023-02-23T05:11:58;99293.13;;;-11.68;63.72
66385;BME280;53426;55.872;37.462;2023-02-23T05:14:24;99304.97;;;-11.07;62.07
66385;BME280;53426;55.872;37.462;2023-02-23T05:16:50;99313.34;;;-10.47;60.27
66385;BME280;53426;55.872;37.462;2023-02-23T05:19:16;99302.94;;;-10.10;58.80
66385;BME280;53426;55.872;37.462;2023-02-23T05:21:42;99310.31;;;-9.60;56.80
66385;BME280;53426;55.872;37.462;2023-02-23T05:24:09;99302.38;;;-9.32;55.37
66385;BME280;53426;55.872;37.462;2023-02-23T05:26:35;99310.88;;;-9.25;54.72
66385;BME280;53426;55.872;37.462;2023-02-23T05:29:01;99308.00;;;-8.90;53.95
66385;BME280;53426;55.872;37.462;2023-02-23T05:31:27;99316.81;;;-8.36;53.29
66385;BME280;53426;55.872;37.462;2023-02-23T05:33:53;99295.75;;;-7.99;51.68
66385;BME280;53426;55.872;37.462;2023-02-23T05:36:20;99304.75;;;-7.70;50.26
66385;BME280;53426;55.872;37.462;2023-02-23T05:39:12;99305.16;;;-7.40;50.71
66385;BME280;53426;55.872;37.462;2023-02-23T05:41:38;99301.78;;;-7.42;49.40
66385;BME280;53426;55.872;37.462;2023-02-23T05:44:04;99273.00;;;-7.67;49.16
66385;BME280;53426;55.872;37.462;2023-02-23T05:46:30;99293.22;;;-7.44;48.88
66385;BME280;53426;55.872;37.462;2023-02-23T05:53:16;99251.84;;;-6.39;46.79
66385;BME280;53426;55.872;37.462;2023-02-23T05:55:42;99298.91;;;-5.90;45.25
66385;BME280;53426;55.872;37.462;2023-02-23T05:58:09;99315.53;;;-5.30;44.00
66385;BME280;53426;55.872;37.462;2023-02-23T06:01:00;99307.91;;;-5.00;43.54
66385;BME280;53426;55.872;37.462;2023-02-23T06:07:22;99260.22;;;-4.86;43.10
66385;BME280;53426;55.872;37.462;2023-02-23T06:10:08;99306.25;;;-4.37;42.79
66385;BME280;53426;55.872;37.462;2023-02-23T06:12:34;99293.41;;;-3.81;40.43
66385;BME280;53426;55.872;37.462;2023-02-23T06:15:00;99299.63;;;-3.59;40.95
66385;BME280;53426;55.872;37.462;2023-02-23T06:17:26;99311.97;;;-2.86;38.78
66385;BME280;53426;55.872;37.462;2023-02-23T06:19:51;99323.72;;;-2.51;38.59
66385;BME280;53426;55.872;37.462;2023-02-23T06:22:17;99283.78;;;-2.96;39.81
66385;BME280;53426;55.872;37.462;2023-02-23T06:24:43;99322.25;;;-2.59;37.91
66385;BME280;53426;55.872;37.462;2023-02-23T06:27:09;99321.56;;;-2.64;38.25
66385;BME280;53426;55.872;37.462;2023-02-23T06:29:35;99316.03;;;-2.79;38.67
66385;BME280;53426;55.872;37.462;2023-02-23T06:32:03;99304.72;;;-2.52;37.07
66385;BME280;53426;55.872;37.462;2023-02-23T06:43:45;99320.75;;;-1.48;40.14
66385;BME280;53426;55.872;37.462;2023-02-23T06:46:11;99294.72;;;-1.24;37.98
66385;BME280;53426;55.872;37.462;2023-02-23T06:48:37;99312.13;;;-1.27;36.98
66385;BME280;53426;55.872;37.462;2023-02-23T06:51:03;99316.91;;;-1.38;36.63
66385;BME280;53426;55.872;37.462;2023-02-23T06:53:29;99301.91;;;-1.09;36.51
66385;BME280;53426;55.872;37.462;2023-02-23T06:55:59;99347.63;;;-1.49;38.61
66385;BME280;53426;55.872;37.462;2023-02-23T07:02:03;99321.63;;;-1.25;36.75
66385;BME280;53426;55.872;37.462;2023-02-23T07:04:31;99338.38;;;-1.56;36.83
66385;BME280;53426;55.872;37.462;2023-02-23T07:07:20;99318.97;;;-0.82;36.22
66385;BME280;53426;55.872;37.462;2023-02-23T07:09:46;99312.97;;;-0.64;35.87
66385;BME280;53426;55.872;37.462;2023-02-23T07:12:12;99294.25;;;-0.92;36.04
66385;BME280;53426;55.872;37.462;2023-02-23T07:14:38;99351.66;;;-0.98;35.75
66385;BME280;53426;55.872;37.462;2023-02-23T07:17:04;99350.34;;;-1.30;36.59
66385;BME280;53426;55.872;37.462;2023-02-23T07:19:30;99341.88;;;-1.35;36.66
66385;BME280;53426;55.872;37.462;2023-02-23T07:21:56;99328.84;;;-1.12;35.93
66385;BME280;53426;55.872;37.462;2023-02-23T07:28:04;99340.38;;;0.04;37.16
66385;BME280;53426;55.872;37.462;2023-02-23T07:33:19;99327.00;;;-0.07;34.57
66385;BME280;53426;55.872;37.462;2023-02-23T07:35:45;99323.22;;;-0.20;34.88
66385;BME280;53426;55.872;37.462;2023-02-23T07:38:13;99310.66;;;-0.50;35.06
66385;BME280;53426;55.872;37.462;2023-02-23T07:40:40;99348.09;;;1.16;33.45
66385;BME280;53426;55.872;37.462;2023-02-23T07:43:07;99330.25;;;0.17;33.33
66385;BME280;53426;55.872;37.462;2023-02-23T07:45:33;99302.69;;;0.31;33.17
66385;BME280;53426;55.872;37.462;2023-02-23T07:48:02;99322.28;;;0.76;33.82
66385;BME280;53426;55.872;37.462;2023-02-23T07:50:46;99362.41;;;1.61;34.33
66385;BME280;53426;55.872;37.462;2023-02-23T07:53:23;99334.31;;;1.66;32.10
66385;BME280;53426;55.872;37.462;2023-02-23T07:55:59;99343.56;;;2.22;31.45
66385;BME280;53426;55.872;37.462;2023-02-23T07:58:40;99322.34;;;1.27;32.91
66385;BME280;53426;55.872;37.462;2023-02-23T08:01:16;99294.03;;;0.67;33.34
66385;BME280;53426;55.872;37.462;2023-02-23T08:03:42;99342.88;;;-1.16;35.48
66385;BME280;53426;55.872;37.462;2023-02-23T08:06:38;99341.66;;;-1.97;38.14
66385;BME280;53426;55.872;37.462;2023-02-23T08:09:04;99309.94;;;-3.29;38.89
66385;BME280;53426;55.872;37.462;2023-02-23T08:11:30;99357.94;;;-4.37;41.07
66385;BME280;53426;55.872;37.462;2023-02-23T08:14:17;99356.50;;;-4.81;42.86
66385;BME280;53426;55.872;37.462;2023-02-23T08:16:47;99323.22;;;-5.28;43.49
66385;BME280;53426;55.872;37.462;2023-02-23T08:29:59;99364.53;;;-6.51;46.72
66385;BME280;53426;55.872;37.462;2023-02-23T08:32:33;99356.84;;;-6.54;47.64
66385;BME280;53426;55.872;37.462;2023-02-23T08:35:02;99362.81;;;-6.51;47.93
66385;BME280;53426;55.872;37.462;2023-02-23T08:37:29;99364.78;;;-6.65;47.94
66385;BME280;53426;55.872;37.462;2023-02-23T08:39:55;99360.56;;;-6.69;48.15
66385;BME280;53426;55.872;37.462;2023-02-23T08:42:21;99361.69;;;-6.85;47.93
66385;BME280;53426;55.872;37.462;2023-02-23T08:44:47;99373.88;;;-6.93;48.74
66385;BME280;53426;55.872;37.462;2023-02-23T08:47:15;99369.50;;;-6.90;49.16
66385;BME280;53426;55.872;37.462;2023-02-23T08:49:41;99373.75;;;-6.87;48.63
66385;BME280;53426;55.872;37.462;2023-02-23T08:52:07;99381.78;;;-7.07;49.27
66385;BME280;53426;55.872;37.462;2023-02-23T08:55:01;99353.59;;;-7.14;49.87
66385;BME280;53426;55.872;37.462;2023-02-23T09:00:47;99361.75;;;-4.51;46.65
66385;BME280;53426;55.872;37.462;2023-02-23T09:03:16;99370.50;;;-2.81;43.91
66385;BME280;53426;55.872;37.462;2023-02-23T09:05:48;99356.13;;;-0.80;39.87
66385;BME280;53426;55.872;37.462;2023-02-23T09:08:46;99354.03;;;0.28;38.55
66385;BME280;53426;55.872;37.462;2023-02-23T09:11:25;99356.72;;;1.18;35.28
66385;BME280;53426;55.872;37.462;2023-02-23T09:13:51;99348.75;;;1.73;35.16
66385;BME280;53426;55.872;37.462;2023-02-23T09:16:19;99338.72;;;2.47;32.74
66385;BME280;53426;55.872;37.462;2023-02-23T09:18:45;99338.69;;;2.78;32.72
66385;BME280;53426;55.872;37.462;2023-02-23T09:21:16;99310.81;;;3.24;32.04
66385;BME280;53426;55.872;37.462;2023-02-23T09:23:46;99327.19;;;3.12;31.94
66385;BME280;53426;55.872;37.462;2023-02-23T09:26:17;99344.53;;;3.29;31.22
66385;BME280;53426;55.872;37.462;2023-02-23T09:28:43;99341.34;;;4.26;29.42
66385;BME280;53426;55.872;37.462;2023-02-23T09:31:13;99337.50;;;5.14;29.05
66385;BME280;53426;55.872;37.462;2023-02-23T09:34:20;99329.47;;;5.29;29.15
66385;BME280;53426;55.872;37.462;2023-02-23T09:36:45;99331.13;;;5.57;27.89
66385;BME280;53426;55.872;37.462;2023-02-23T09:39:11;99333.59;;;5.33;28.18
66385;BME280;53426;55.872;37.462;2023-02-23T09:48:20;99326.88;;;5.42;26.93
66385;BME280;53426;55.872;37.462;2023-02-23T09:55:02;99292.59;;;6.08;26.79
66385;BME280;53426;55.872;37.462;2023-02-23T09:57:36;99326.72;;;6.59;27.36
66385;BME280;53426;55.872;37.462;2023-02-23T10:00:23;99307.53;;;7.17;26.23
66385;BME280;53426;55.872;37.462;2023-02-23T10:03:09;99314.38;;;7.54;25.40
66385;BME280;53426;55.872;37.462;2023-02-23T10:05:42;99311.75;;;7.54;24.47
66385;BME280;53426;55.872;37.462;2023-02-23T10:08:35;99317.28;;;7.04;26.35
66385;BME280;53426;55.872;37.462;2023-02-23T10:11:28;99320.78;;;6.06;26.80
66385;BME280;53426;55.872;37.462;2023-02-23T10:20:17;99316.38;;;7.16;26.13
66385;BME280;53426;55.872;37.462;2023-02-23T10:22:47;99256.25;;;6.39;24.75
66385;BME280;53426;55.872;37.462;2023-02-23T10:25:27;99312.56;;;7.44;25.68
66385;BME280;53426;55.872;37.462;2023-02-23T10:27:57;99308.94;;;7.91;23.24
66385;BME280;53426;55.872;37.462;2023-02-23T10:30:32;99316.50;;;7.73;24.28
66385;BME280;53426;55.872;37.462;2023-02-23T10:33:15;99318.34;;;8.06;24.24
66385;BME280;53426;55.872;37.462;2023-02-23T10:35:51;99311.59;;;6.86;24.48
66385;BME280;53426;55.872;37.462;2023-02-23T10:38:19;99319.19;;;7.26;27.11
66385;BME280;53426;55.872;37.462;2023-02-23T10:40:52;99318.28;;;7.38;24.12
66385;BME280;53426;55.872;37.462;2023-02-23T10:43:19;99305.00;;;7.15;23.82
66385;BME280;53426;55.872;37.462;2023-02-23T10:45:50;99303.91;;;6.83;24.02
66385;BME280;53426;55.872;37.462;2023-02-23T10:48:27;99307.81;;;6.28;25.47
66385;BME280;53426;55.872;37.462;2023-02-23T10:50:55;99303.94;;;5.71;25.28
66385;BME280;53426;55.872;37.462;2023-02-23T10:53:35;99312.56;;;6.23;24.85
66385;BME280;53426;55.872;37.462;2023-02-23T10:56:13;99293.31;;;6.72;24.25
66385;BME280;53426;55.872;37.462;2023-02-23T10:58:42;99296.00;;;7.07;23.63
66385;BME280;53426;55.872;37.462;2023-02-23T11:01:12;99300.63;;;7.51;23.31
66385;BME280;53426;55.872;37.462;2023-02-23T11:03:41;99283.59;;;7.09;23.35
66385;BME280;53426;55.872;37.462;2023-02-23T11:06:29;99286.25;;;6.72;24.92
66385;BME280;53426;55.872;37.462;2023-02-23T11:08:55;99290.78;;;6.34;24.55
66385;BME280;53426;55.872;37.462;2023-02-23T11:11:25;99286.41;;;6.58;24.51
66385;BME280;53426;55.872;37.462;2023-02-23T11:13:55;99285.75;;;7.15;23.60
66385;BME280;53426;55.872;37.462;2023-02-23T11:16:22;99291.59;;;7.07;24.01
66385;BME280;53426;55.872;37.462;2023-02-23T11:18:55;99292.28;;;6.62;24.17
66385;BME280;53426;55.872;37.462;2023-02-23T11:21:31;99282.13;;;6.45;24.60
66385;BME280;53426;55.872;37.462;2023-02-23T11:26:51;99300.56;;;5.56;24.78
66385;BME280;53426;55.872;37.462;2023-02-23T11:29:38;99299.41;;;5.60;25.91
66385;BME280;53426;55.872;37.462;2023-02-23T11:32:27;99287.13;;;4.82;26.29
66385;BME280;53426;55.872;37.462;2023-02-23T11:37:41;99269.13;;;3.79;27.51
66385;BME280;53426;55.872;37.462;2023-02-23T11:40:28;99292.50;;;4.11;27.61
66385;BME280;53426;55.872;37.462;2023-02-23T11:45:38;99297.25;;;2.72;28.57
66385;BME280;53426;55.872;37.462;2023-02-23T11:50:59;99220.50;;;1.31;29.38
66385;BME280;53426;55.872;37.462;2023-02-23T11:53:32;99285.19;;;0.71;30.65
66385;BME280;53426;55.872;37.462;2023-02-23T11:56:01;99285.19;;;-0.04;31.83
66385;BME280;53426;55.872;37.462;2023-02-23T11:58:36;99296.84;;;-0.92;33.87
66385;BME280;53426;55.872;37.462;2023-02-23T12:01:06;99262.56;;;-1.64;34.75
66385;BME280;53426;55.872;37.462;2023-02-23T12:03:55;99292.91;;;-2.13;35.60
66385;BME280;53426;55.872;37.462;2023-02-23T12:06:36;99267.81;;;-2.83;37.01
66385;BME280;53426;55.872;37.462;2023-02-23T12:09:25;99278.41;;;-3.16;37.48
66385;BME280;53426;55.872;37.462;2023-02-23T12:12:09;99270.97;;;-3.53;38.33
66385;BME280;53426;55.872;37.462;2023-02-23T12:14:40;99291.16;;;-3.36;38.92
66385;BME280;53426;55.872;37.462;2023-02-23T12:17:22;99293.72;;;-3.62;39.50
66385;BME280;53426;55.872;37.462;2023-02-23T12:20:20;99286.56;;;-4.11;39.62
66385;BME280;53426;55.872;37.462;2023-02-23T12:22:53;99290.78;;;-4.09;40.39
66385;BME280;53426;55.872;37.462;2023-02-23T12:30:50;99276.88;;;-4.34;40.62
66385;BME280;53426;55.872;37.462;2023-02-23T12:38:55;99308.78;;;-4.68;41.69
66385;BME280;53426;55.872;37.462;2023-02-23T12:41:45;99303.59;;;-4.66;41.25
66385;BME280;53426;55.872;37.462;2023-02-23T12:47:33;99307.34;;;-4.78;42.17
66385;BME280;53426;55.872;37.462;2023-02-23T12:50:17;99280.47;;;-5.03;42.97
66385;BME280;53426;55.872;37.462;2023-02-23T12:55:53;99321.09;;;-4.77;43.47
66385;BME280;53426;55.872;37.462;2023-02-23T12:58:39;99318.31;;;-5.02;43.59
66385;BME280;53426;55.872;37.462;2023-02-23T13:06:11;99316.81;;;-5.12;44.73
66385;BME280;53426;55.872;37.462;2023-02-23T13:17:45;99315.06;;;-5.10;45.36
66385;BME280;53426;55.872;37.462;2023-02-23T13:22:57;99309.41;;;-5.26;45.42
66385;BME280;53426;55.872;37.462;2023-02-23T13:27:59;99303.97;;;-5.51;46.37
66385;BME280;53426;55.872;37.462;2023-02-23T13:30:29;99327.97;;;-5.45;46.63
66385;BME280;53426;55.872;37.462;2023-02-23T13:32:58;99295.00;;;-5.71;47.26
66385;BME280;53426;55.872;37.462;2023-02-23T13:35:30;99329.06;;;-5.57;47.30
66385;BME280;53426;55.872;37.462;2023-02-23T13:38:28;99327.63;;;-5.69;47.53
66385;BME280;53426;55.872;37.462;2023-02-23T13:46:56;99332.44;;;-5.92;47.80
66385;BME280;53426;55.872;37.462;2023-02-23T13:49:38;99320.50;;;-5.96;48.19
66385;BME280;53426;55.872;37.462;2023-02-23T13:52:43;99331.31;;;-5.82;48.35
66385;BME280;53426;55.872;37.462;2023-02-23T13:58:03;99317.72;;;-5.87;48.33
66385;BME280;53426;55.872;37.462;2023-02-23T14:00:30;99319.38;;;-5.84;48.55
66385;BME280;53426;55.872;37.462;2023-02-23T14:03:02;99324.72;;;-5.92;48.69
66385;BME280;53426;55.872;37.462;2023-02-23T14:05:29;99304.28;;;-6.01;48.63
66385;BME280;53426;55.872;37.462;2023-02-23T14:07:59;99323.22;;;-6.02;48.96
66385;BME280;53426;55.872;37.462;2023-02-23T14:10:40;99319.06;;;-6.09;48.77
66385;BME280;53426;55.872;37.462;2023-02-23T14:13:29;99324.53;;;-6.24;48.82
66385;BME280;53426;55.872;37.462;2023-02-23T14:16:18;99329.69;;;-6.26;50.18
66385;BME280;53426;55.872;37.462;2023-02-23T14:22:07;99320.56;;;-6.42;49.56
66385;BME280;53426;55.872;37.462;2023-02-23T14:24:30;99319.03;;;-6.51;50.03
66385;BME280;53426;55.872;37.462;2023-02-23T14:29:38;99309.06;;;-6.69;50.44
66385;BME280;53426;55.872;37.462;2023-02-23T14:34:58;99300.69;;;-6.79;51.25
66385;BME280;53426;55.872;37.462;2023-02-23T14:37:28;99288.88;;;-6.92;51.67
66385;BME280;53426;55.872;37.462;2023-02-23T14:40:17;99306.13;;;-6.95;51.26
66385;BME280;53426;55.872;37.462;2023-02-23T14:42:51;99297.72;;;-7.05;51.69
66385;BME280;53426;55.872;37.462;2023-02-23T14:45:32;99296.91;;;-7.08;51.72
66385;BME280;53426;55.872;37.462;2023-02-23T14:48:04;99297.75;;;-7.08;52.57
66385;BME280;53426;55.872;37.462;2023-02-23T14:50:33;99295.34;;;-7.15;52.64
66385;BME280;53426;55.872;37.462;2023-02-23T14:53:00;99287.72;;;-7.22;52.20
66385;BME280;53426;55.872;37.462;2023-02-23T14:55:31;99294.63;;;-7.25;52.50
66385;BME280;53426;55.872;37.462;2023-02-23T14:58:01;99298.88;;;-7.24;52.99
66385;BME280;53426;55.872;37.462;2023-02-23T15:00:41;99281.84;;;-7.30;52.73
66385;BME280;53426;55.872;37.462;2023-02-23T15:03:09;99278.50;;;-7.36;53.21
66385;BME280;53426;55.872;37.462;2023-02-23T15:08:28;99304.19;;;-7.33;52.61
66385;BME280;53426;55.872;37.462;2023-02-23T15:11:10;99306.94;;;-7.44;52.49
66385;BME280;53426;55.872;37.462;2023-02-23T15:13:39;99307.91;;;-7.52;53.63
66385;BME280;53426;55.872;37.462;2023-02-23T15:16:26;99300.25;;;-7.55;53.46
66385;BME280;53426;55.872;37.462;2023-02-23T15:18:52;99301.97;;;-7.56;53.40
66385;BME280;53426;55.872;37.462;2023-02-23T15:21:20;99302.94;;;-7.63;53.89
66385;BME280;53426;55.872;37.462;2023-02-23T15:24:11;99305.47;;;-7.58;53.35
66385;BME280;53426;55.872;37.462;2023-02-23T15:26:38;99238.41;;;-8.02;54.02
66385;BME280;53426;55.872;37.462;2023-02-23T15:29:44;99277.44;;;-7.77;53.96
66385;BME280;53426;55.872;37.462;2023-02-23T15:32:53;99158.56;;;-8.43;53.32
66385;BME280;53426;55.872;37.462;2023-02-23T15:36:24;99302.03;;;-7.59;53.33
66385;BME280;53426;55.872;37.462;2023-02-23T15:38:58;99286.72;;;-7.67;53.69
66385;BME280;53426;55.872;37.462;2023-02-23T15:48:39;99278.22;;;-7.72;53.55
66385;BME280;53426;55.872;37.462;2023-02-23T15:51:50;99280.00;;;-7.77;53.70
66385;BME280;53426;55.872;37.462;2023-02-23T15:54:20;99281.88;;;-7.86;54.49
66385;BME280;53426;55.872;37.462;2023-02-23T15:56:48;99281.03;;;-7.87;54.66
66385;BME280;53426;55.872;37.462;2023-02-23T15:59:35;99286.97;;;-7.83;54.02
66385;BME280;53426;55.872;37.462;2023-02-23T16:02:12;99280.91;;;-7.79;53.64
66385;BME280;53426;55.872;37.462;2023-02-23T16:04:39;99276.59;;;-7.79;54.41
66385;BME280;53426;55.872;37.462;2023-02-23T16:07:22;99283.44;;;-7.75;54.05
66385;BME280;53426;55.872;37.462;2023-02-23T16:10:03;99271.38;;;-7.73;54.20
66385;BME280;53426;55.872;37.462;2023-02-23T16:12:31;99272.28;;;-7.75;54.32
66385;BME280;53426;55.872;37.462;2023-02-23T16:15:03;99251.00;;;-7.85;54.07
66385;BME280;53426;55.872;37.462;2023-02-23T16:17:39;99258.59;;;-7.77;54.75
66385;BME280;53426;55.872;37.462;2023-02-23T16:20:17;99259.47;;;-7.78;54.33
66385;BME280;53426;55.872;37.462;2023-02-23T16:22:46;99250.06;;;-7.79;54.26
66385;BME280;53426;55.872;37.462;2023-02-23T16:25:15;99256.03;;;-7.76;54.65
66385;BME280;53426;55.872;37.462;2023-02-23T16:27:46;99256.81;;;-7.74;54.52
66385;BME280;53426;55.872;37.462;2023-02-23T16:30:33;99263.63;;;-7.70;54.20
66385;BME280;53426;55.872;37.462;2023-02-23T16:35:42;99248.16;;;-7.67;54.15